Terminal Aerodrome Forecast
Issued by NWS

Home | Current Version | Previous Version | Text Only | Print | Product List | Glossary On
Versions: 1 2 3 4 5 6 7 8 9 10 11 12 13 14 15
183
FTUS45 KTFX 022323
TAFBZN
TAF
KBZN 022323Z 0300/0324 VRB06KT P6SM SCT250
     FM030200 21008KT P6SM BKN070
     FM031800 23012KT P6SM BKN050=

USA.gov is the U.S. government's official web portal to all federal, state and local government web resources and services.